WEI weather

Weipa Airport
Weipa, Queensland, Australia

Public forecast

Using degrees Celsius for public forecast. Weather courtesy of forecast.io.

METAR (pilot weather report)

Retrieved 2019/03/25 13:00 UTC (55 minutes ago):

YBWP 251300Z AUTO 06007KT 9999 // NCD 26/24 Q1012

TAF (pilot weather forecast)

Closest forecast is Gove Airport, 300.4 nm (556.3 km) W. Retrieved 2019/03/25 14:00 UTC (0 seconds ago):

TAF YPGV 251229Z 2514/2602 35007KT 9999 SCT020 TEMPO 2600/2602 VRB20G35KT 1000 TSRA BKN010 SCT020CB